sensor_id;sensor_type;location;lat;lon;timestamp;temperature;humidity
30764;DHT22;17497;51.476;7.770;2023-05-07T00:01:43;13.60;99.90
30764;DHT22;17497;51.476;7.770;2023-05-07T00:04:10;13.60;99.90
30764;DHT22;17497;51.476;7.770;2023-05-07T00:06:49;13.70;99.90
30764;DHT22;17497;51.476;7.770;2023-05-07T00:10:38;13.70;99.90
30764;DHT22;17497;51.476;7.770;2023-05-07T00:18:13;13.60;99.90
30764;DHT22;17497;51.476;7.770;2023-05-07T00:21:42;13.60;99.90
30764;DHT22;17497;51.476;7.770;2023-05-07T00:24:35;13.60;99.90
30764;DHT22;17497;51.476;7.770;2023-05-07T00:27:48;13.50;99.90
30764;DHT22;17497;51.476;7.770;2023-05-07T00:30:43;13.60;99.90
30764;DHT22;17497;51.476;7.770;2023-05-07T00:34:02;13.50;99.90
30764;DHT22;17497;51.476;7.770;2023-05-07T00:40:25;13.50;99.90
30764;DHT22;17497;51.476;7.770;2023-05-07T00:43:12;13.50;99.90
30764;DHT22;17497;51.476;7.770;2023-05-07T00:45:42;13.50;99.90
30764;DHT22;17497;51.476;7.770;2023-05-07T00:48:14;13.60;99.90
30764;DHT22;17497;51.476;7.770;2023-05-07T00:50:43;13.50;99.90
30764;DHT22;17497;51.476;7.770;2023-05-07T00:53:28;13.50;99.90
30764;DHT22;17497;51.476;7.770;2023-05-07T00:56:08;13.50;99.90
30764;DHT22;17497;51.476;7.770;2023-05-07T00:58:47;13.50;99.90
30764;DHT22;17497;51.476;7.770;2023-05-07T01:01:25;13.40;99.90
30764;DHT22;17497;51.476;7.770;2023-05-07T01:04:00;13.50;99.90
30764;DHT22;17497;51.476;7.770;2023-05-07T01:06:34;13.40;99.90
30764;DHT22;17497;51.476;7.770;2023-05-07T01:09:05;13.50;99.90
30764;DHT22;17497;51.476;7.770;2023-05-07T01:11:35;13.50;99.90
30764;DHT22;17497;51.476;7.770;2023-05-07T01:14:09;13.50;99.90
30764;DHT22;17497;51.476;7.770;2023-05-07T01:16:41;13.50;99.90
30764;DHT22;17497;51.476;7.770;2023-05-07T01:19:14;13.50;99.90
30764;DHT22;17497;51.476;7.770;2023-05-07T01:21:49;13.50;99.90
30764;DHT22;17497;51.476;7.770;2023-05-07T01:24:18;13.40;99.90
30764;DHT22;17497;51.476;7.770;2023-05-07T01:26:45;13.40;99.90
30764;DHT22;17497;51.476;7.770;2023-05-07T01:29:12;13.40;99.90
30764;DHT22;17497;51.476;7.770;2023-05-07T01:31:40;13.30;99.90
30764;DHT22;17497;51.476;7.770;2023-05-07T01:34:09;13.40;99.90
30764;DHT22;17497;51.476;7.770;2023-05-07T01:36:38;13.40;99.90
30764;DHT22;17497;51.476;7.770;2023-05-07T01:39:07;13.40;99.90
30764;DHT22;17497;51.476;7.770;2023-05-07T01:41:35;13.40;99.90
30764;DHT22;17497;51.476;7.770;2023-05-07T01:44:03;13.40;99.90
30764;DHT22;17497;51.476;7.770;2023-05-07T01:46:31;13.40;99.90
30764;DHT22;17497;51.476;7.770;2023-05-07T01:48:59;13.40;99.90
30764;DHT22;17497;51.476;7.770;2023-05-07T01:51:27;13.40;99.90
30764;DHT22;17497;51.476;7.770;2023-05-07T01:53:54;13.40;99.90
30764;DHT22;17497;51.476;7.770;2023-05-07T01:56:21;13.40;99.90
30764;DHT22;17497;51.476;7.770;2023-05-07T01:58:48;13.40;99.90
30764;DHT22;17497;51.476;7.770;2023-05-07T02:01:17;13.40;99.90
30764;DHT22;17497;51.476;7.770;2023-05-07T02:03:44;13.40;99.90
30764;DHT22;17497;51.476;7.770;2023-05-07T02:06:12;13.40;99.90
30764;DHT22;17497;51.476;7.770;2023-05-07T02:08:42;13.40;99.90
30764;DHT22;17497;51.476;7.770;2023-05-07T02:11:08;13.40;99.90
30764;DHT22;17497;51.476;7.770;2023-05-07T02:13:36;13.40;99.90
30764;DHT22;17497;51.476;7.770;2023-05-07T02:16:03;13.40;99.90
30764;DHT22;17497;51.476;7.770;2023-05-07T02:18:31;13.40;99.90
30764;DHT22;17497;51.476;7.770;2023-05-07T02:20:58;13.30;99.90
30764;DHT22;17497;51.476;7.770;2023-05-07T02:23:25;13.30;99.90
30764;DHT22;17497;51.476;7.770;2023-05-07T02:25:54;13.30;99.90
30764;DHT22;17497;51.476;7.770;2023-05-07T02:28:21;13.30;99.90
30764;DHT22;17497;51.476;7.770;2023-05-07T02:30:48;13.30;99.90
30764;DHT22;17497;51.476;7.770;2023-05-07T02:33:14;13.30;99.90
30764;DHT22;17497;51.476;7.770;2023-05-07T02:35:41;13.20;99.90
30764;DHT22;17497;51.476;7.770;2023-05-07T02:38:08;13.20;99.90
30764;DHT22;17497;51.476;7.770;2023-05-07T02:40:37;13.20;99.90
30764;DHT22;17497;51.476;7.770;2023-05-07T02:43:07;13.10;99.90
30764;DHT22;17497;51.476;7.770;2023-05-07T02:45:33;13.10;99.90
30764;DHT22;17497;51.476;7.770;2023-05-07T02:48:00;13.10;99.90
30764;DHT22;17497;51.476;7.770;2023-05-07T02:50:29;13.00;99.90
30764;DHT22;17497;51.476;7.770;2023-05-07T02:52:56;13.10;99.90
30764;DHT22;17497;51.476;7.770;2023-05-07T02:55:22;13.10;99.90
30764;DHT22;17497;51.476;7.770;2023-05-07T02:57:49;13.00;99.90
30764;DHT22;17497;51.476;7.770;2023-05-07T03:00:17;13.00;99.90
30764;DHT22;17497;51.476;7.770;2023-05-07T03:02:53;13.00;99.90
30764;DHT22;17497;51.476;7.770;2023-05-07T03:05:22;13.10;99.90
30764;DHT22;17497;51.476;7.770;2023-05-07T03:07:50;13.10;99.90
30764;DHT22;17497;51.476;7.770;2023-05-07T03:10:16;13.10;99.90
30764;DHT22;17497;51.476;7.770;2023-05-07T03:12:43;13.10;99.90
30764;DHT22;17497;51.476;7.770;2023-05-07T03:15:10;13.10;99.90
30764;DHT22;17497;51.476;7.770;2023-05-07T03:17:39;13.10;99.90
30764;DHT22;17497;51.476;7.770;2023-05-07T03:20:06;13.10;99.90
30764;DHT22;17497;51.476;7.770;2023-05-07T03:22:33;13.10;99.90
30764;DHT22;17497;51.476;7.770;2023-05-07T03:25:00;13.00;99.90
30764;DHT22;17497;51.476;7.770;2023-05-07T03:27:30;12.90;99.90
30764;DHT22;17497;51.476;7.770;2023-05-07T03:29:57;13.00;99.90
30764;DHT22;17497;51.476;7.770;2023-05-07T03:32:24;13.00;99.90
30764;DHT22;17497;51.476;7.770;2023-05-07T03:34:51;13.00;99.90
30764;DHT22;17497;51.476;7.770;2023-05-07T03:37:18;13.00;99.90
30764;DHT22;17497;51.476;7.770;2023-05-07T03:39:45;13.10;99.90
30764;DHT22;17497;51.476;7.770;2023-05-07T03:42:12;13.00;99.90
30764;DHT22;17497;51.476;7.770;2023-05-07T03:44:39;13.00;99.90
30764;DHT22;17497;51.476;7.770;2023-05-07T03:47:06;13.00;99.90
30764;DHT22;17497;51.476;7.770;2023-05-07T03:49:33;13.00;99.90
30764;DHT22;17497;51.476;7.770;2023-05-07T03:52:00;13.00;99.90
30764;DHT22;17497;51.476;7.770;2023-05-07T03:54:27;13.00;99.90
30764;DHT22;17497;51.476;7.770;2023-05-07T03:56:54;13.00;99.90
30764;DHT22;17497;51.476;7.770;2023-05-07T03:59:21;13.00;99.90
30764;DHT22;17497;51.476;7.770;2023-05-07T04:01:48;13.00;99.90
30764;DHT22;17497;51.476;7.770;2023-05-07T04:04:15;13.00;99.90
30764;DHT22;17497;51.476;7.770;2023-05-07T04:06:42;12.90;99.90
30764;DHT22;17497;51.476;7.770;2023-05-07T04:09:09;13.00;99.90
30764;DHT22;17497;51.476;7.770;2023-05-07T04:11:36;13.00;99.90
30764;DHT22;17497;51.476;7.770;2023-05-07T04:14:03;13.00;99.90
30764;DHT22;17497;51.476;7.770;2023-05-07T04:16:30;13.10;99.90
30764;DHT22;17497;51.476;7.770;2023-05-07T04:18:57;13.10;99.90
30764;DHT22;17497;51.476;7.770;2023-05-07T04:21:23;13.10;99.90
30764;DHT22;17497;51.476;7.770;2023-05-07T04:23:50;13.10;99.90
30764;DHT22;17497;51.476;7.770;2023-05-07T04:26:17;13.10;99.90
30764;DHT22;17497;51.476;7.770;2023-05-07T04:28:44;13.10;99.90
30764;DHT22;17497;51.476;7.770;2023-05-07T04:31:11;13.20;99.90
30764;DHT22;17497;51.476;7.770;2023-05-07T04:33:38;13.20;99.90
30764;DHT22;17497;51.476;7.770;2023-05-07T04:36:05;13.20;99.90
30764;DHT22;17497;51.476;7.770;2023-05-07T04:38:32;13.20;99.90
30764;DHT22;17497;51.476;7.770;2023-05-07T04:41:06;13.20;99.90
30764;DHT22;17497;51.476;7.770;2023-05-07T04:43:42;13.30;99.90
30764;DHT22;17497;51.476;7.770;2023-05-07T04:59:56;13.40;99.90
30764;DHT22;17497;51.476;7.770;2023-05-07T05:02:23;13.40;99.90
30764;DHT22;17497;51.476;7.770;2023-05-07T05:04:53;13.30;99.90
30764;DHT22;17497;51.476;7.770;2023-05-07T05:07:20;13.30;99.90
30764;DHT22;17497;51.476;7.770;2023-05-07T05:09:46;13.30;99.90
30764;DHT22;17497;51.476;7.770;2023-05-07T05:12:13;13.40;99.90
30764;DHT22;17497;51.476;7.770;2023-05-07T05:14:40;13.40;99.90
30764;DHT22;17497;51.476;7.770;2023-05-07T06:36:05;14.70;99.90
30764;DHT22;17497;51.476;7.770;2023-05-07T06:38:32;14.90;99.90
30764;DHT22;17497;51.476;7.770;2023-05-07T06:40:59;15.00;99.90
30764;DHT22;17497;51.476;7.770;2023-05-07T06:43:28;15.10;99.90
30764;DHT22;17497;51.476;7.770;2023-05-07T07:23:59;17.00;99.90
30764;DHT22;17497;51.476;7.770;2023-05-07T07:26:26;17.10;99.90
30764;DHT22;17497;51.476;7.770;2023-05-07T07:28:53;17.20;99.90
30764;DHT22;17497;51.476;7.770;2023-05-07T07:31:20;17.10;99.90
30764;DHT22;17497;51.476;7.770;2023-05-07T07:33:47;17.10;99.90
30764;DHT22;17497;51.476;7.770;2023-05-07T07:36:14;17.20;99.90
30764;DHT22;17497;51.476;7.770;2023-05-07T07:38:41;17.20;99.90
30764;DHT22;17497;51.476;7.770;2023-05-07T07:41:08;17.30;99.90
30764;DHT22;17497;51.476;7.770;2023-05-07T07:43:35;17.30;99.90
30764;DHT22;17497;51.476;7.770;2023-05-07T07:46:02;17.40;99.90
30764;DHT22;17497;51.476;7.770;2023-05-07T07:48:29;17.40;99.90
30764;DHT22;17497;51.476;7.770;2023-05-07T07:50:55;17.50;99.90
30764;DHT22;17497;51.476;7.770;2023-05-07T07:53:22;17.50;99.90
30764;DHT22;17497;51.476;7.770;2023-05-07T07:55:49;17.70;99.90
30764;DHT22;17497;51.476;7.770;2023-05-07T07:58:15;17.70;99.90
30764;DHT22;17497;51.476;7.770;2023-05-07T08:00:42;17.80;99.90
30764;DHT22;17497;51.476;7.770;2023-05-07T08:03:09;17.80;99.90
30764;DHT22;17497;51.476;7.770;2023-05-07T08:05:37;17.70;99.90
30764;DHT22;17497;51.476;7.770;2023-05-07T08:08:05;17.70;99.90
30764;DHT22;17497;51.476;7.770;2023-05-07T08:10:32;17.80;99.90
30764;DHT22;17497;51.476;7.770;2023-05-07T08:13:01;17.80;99.90
30764;DHT22;17497;51.476;7.770;2023-05-07T08:15:30;17.90;99.90
30764;DHT22;17497;51.476;7.770;2023-05-07T08:17:58;18.00;99.90
30764;DHT22;17497;51.476;7.770;2023-05-07T08:20:26;18.10;99.90
30764;DHT22;17497;51.476;7.770;2023-05-07T08:22:53;18.20;99.90
30764;DHT22;17497;51.476;7.770;2023-05-07T08:25:20;18.30;99.90
30764;DHT22;17497;51.476;7.770;2023-05-07T08:27:47;18.40;99.90
30764;DHT22;17497;51.476;7.770;2023-05-07T08:30:14;18.50;99.90
30764;DHT22;17497;51.476;7.770;2023-05-07T08:32:41;18.60;99.90
30764;DHT22;17497;51.476;7.770;2023-05-07T08:35:08;18.70;99.90
30764;DHT22;17497;51.476;7.770;2023-05-07T08:37:35;18.80;99.90
30764;DHT22;17497;51.476;7.770;2023-05-07T08:40:01;18.90;99.90
30764;DHT22;17497;51.476;7.770;2023-05-07T08:42:29;19.00;99.90
30764;DHT22;17497;51.476;7.770;2023-05-07T08:44:57;19.10;99.90
30764;DHT22;17497;51.476;7.770;2023-05-07T08:47:30;19.10;99.90
30764;DHT22;17497;51.476;7.770;2023-05-07T08:49:59;19.20;99.90
30764;DHT22;17497;51.476;7.770;2023-05-07T08:52:26;19.30;99.90
30764;DHT22;17497;51.476;7.770;2023-05-07T08:54:53;19.40;99.90
30764;DHT22;17497;51.476;7.770;2023-05-07T08:57:20;19.50;99.90
30764;DHT22;17497;51.476;7.770;2023-05-07T08:59:48;19.60;99.90
30764;DHT22;17497;51.476;7.770;2023-05-07T09:02:14;19.60;99.90
30764;DHT22;17497;51.476;7.770;2023-05-07T09:04:43;19.60;99.90
30764;DHT22;17497;51.476;7.770;2023-05-07T09:07:10;19.70;99.90
30764;DHT22;17497;51.476;7.770;2023-05-07T09:09:37;19.60;99.90
30764;DHT22;17497;51.476;7.770;2023-05-07T09:12:04;19.70;99.90
30764;DHT22;17497;51.476;7.770;2023-05-07T09:14:32;19.80;99.90
30764;DHT22;17497;51.476;7.770;2023-05-07T09:16:59;19.80;99.90
30764;DHT22;17497;51.476;7.770;2023-05-07T09:19:27;19.90;99.90
30764;DHT22;17497;51.476;7.770;2023-05-07T09:25:16;20.00;99.90
30764;DHT22;17497;51.476;7.770;2023-05-07T09:28:05;20.20;99.90
30764;DHT22;17497;51.476;7.770;2023-05-07T09:30:34;20.40;99.90
30764;DHT22;17497;51.476;7.770;2023-05-07T09:33:05;20.50;99.90
30764;DHT22;17497;51.476;7.770;2023-05-07T09:35:55;20.60;99.90
30764;DHT22;17497;51.476;7.770;2023-05-07T09:38:22;20.60;99.90
30764;DHT22;17497;51.476;7.770;2023-05-07T09:41:05;20.60;99.90
30764;DHT22;17497;51.476;7.770;2023-05-07T09:43:33;20.70;99.90
30764;DHT22;17497;51.476;7.770;2023-05-07T09:46:11;20.80;99.90
30764;DHT22;17497;51.476;7.770;2023-05-07T09:48:41;20.90;99.90
30764;DHT22;17497;51.476;7.770;2023-05-07T09:53:53;21.40;99.90
30764;DHT22;17497;51.476;7.770;2023-05-07T09:56:20;21.60;99.90
30764;DHT22;17497;51.476;7.770;2023-05-07T09:58:48;21.70;99.90
30764;DHT22;17497;51.476;7.770;2023-05-07T10:01:17;21.80;99.90
30764;DHT22;17497;51.476;7.770;2023-05-07T10:03:44;21.90;99.90
30764;DHT22;17497;51.476;7.770;2023-05-07T10:06:13;22.00;99.90
30764;DHT22;17497;51.476;7.770;2023-05-07T10:08:40;22.20;99.90
30764;DHT22;17497;51.476;7.770;2023-05-07T10:11:07;22.40;99.90
30764;DHT22;17497;51.476;7.770;2023-05-07T10:13:35;22.50;99.90
30764;DHT22;17497;51.476;7.770;2023-05-07T10:16:06;22.70;99.90
30764;DHT22;17497;51.476;7.770;2023-05-07T10:18:37;22.90;99.90
30764;DHT22;17497;51.476;7.770;2023-05-07T10:21:08;23.10;99.90
30764;DHT22;17497;51.476;7.770;2023-05-07T10:23:38;23.30;99.90
30764;DHT22;17497;51.476;7.770;2023-05-07T10:26:07;23.60;99.90
30764;DHT22;17497;51.476;7.770;2023-05-07T10:28:39;23.80;99.90
30764;DHT22;17497;51.476;7.770;2023-05-07T10:31:14;23.80;99.90
30764;DHT22;17497;51.476;7.770;2023-05-07T10:33:47;24.10;99.90
30764;DHT22;17497;51.476;7.770;2023-05-07T10:36:15;24.30;99.90
30764;DHT22;17497;51.476;7.770;2023-05-07T10:38:42;24.20;99.90
30764;DHT22;17497;51.476;7.770;2023-05-07T10:41:10;24.10;99.90
30764;DHT22;17497;51.476;7.770;2023-05-07T10:43:42;24.20;99.90
30764;DHT22;17497;51.476;7.770;2023-05-07T10:46:17;24.30;99.90
30764;DHT22;17497;51.476;7.770;2023-05-07T10:51:30;25.00;99.90
30764;DHT22;17497;51.476;7.770;2023-05-07T10:56:39;25.70;99.90
30764;DHT22;17497;51.476;7.770;2023-05-07T11:01:54;25.20;99.90
30764;DHT22;17497;51.476;7.770;2023-05-07T11:04:22;25.10;99.90
30764;DHT22;17497;51.476;7.770;2023-05-07T11:07:24;25.30;99.90
30764;DHT22;17497;51.476;7.770;2023-05-07T11:21:42;24.90;99.90
30764;DHT22;17497;51.476;7.770;2023-05-07T11:24:12;24.50;99.90
30764;DHT22;17497;51.476;7.770;2023-05-07T11:26:43;24.20;99.90
30764;DHT22;17497;51.476;7.770;2023-05-07T11:29:19;24.00;99.90
30764;DHT22;17497;51.476;7.770;2023-05-07T11:31:53;23.60;99.90
30764;DHT22;17497;51.476;7.770;2023-05-07T11:34:26;23.20;99.90
30764;DHT22;17497;51.476;7.770;2023-05-07T11:36:54;22.80;99.90
30764;DHT22;17497;51.476;7.770;2023-05-07T11:39:27;22.50;99.90
30764;DHT22;17497;51.476;7.770;2023-05-07T11:41:54;22.50;99.90
30764;DHT22;17497;51.476;7.770;2023-05-07T11:44:21;22.70;99.90
30764;DHT22;17497;51.476;7.770;2023-05-07T11:46:48;23.00;99.90
30764;DHT22;17497;51.476;7.770;2023-05-07T11:49:15;23.30;99.90
30764;DHT22;17497;51.476;7.770;2023-05-07T11:51:42;23.70;99.90
30764;DHT22;17497;51.476;7.770;2023-05-07T11:54:10;23.80;99.90
30764;DHT22;17497;51.476;7.770;2023-05-07T11:56:38;23.90;99.90
30764;DHT22;17497;51.476;7.770;2023-05-07T11:59:05;23.90;99.90
30764;DHT22;17497;51.476;7.770;2023-05-07T12:01:35;23.90;99.90
30764;DHT22;17497;51.476;7.770;2023-05-07T12:04:03;23.90;99.90
30764;DHT22;17497;51.476;7.770;2023-05-07T12:06:30;24.00;99.90
30764;DHT22;17497;51.476;7.770;2023-05-07T12:08:57;24.10;99.90
30764;DHT22;17497;51.476;7.770;2023-05-07T12:11:25;24.40;99.90
30764;DHT22;17497;51.476;7.770;2023-05-07T12:13:54;24.70;99.90
30764;DHT22;17497;51.476;7.770;2023-05-07T12:16:25;24.80;99.90
30764;DHT22;17497;51.476;7.770;2023-05-07T12:18:52;24.80;99.90
30764;DHT22;17497;51.476;7.770;2023-05-07T12:21:21;24.40;99.90
30764;DHT22;17497;51.476;7.770;2023-05-07T12:23:49;23.90;99.90
30764;DHT22;17497;51.476;7.770;2023-05-07T12:26:16;23.50;99.90
30764;DHT22;17497;51.476;7.770;2023-05-07T12:28:42;23.10;99.90
30764;DHT22;17497;51.476;7.770;2023-05-07T12:31:09;22.90;99.90
30764;DHT22;17497;51.476;7.770;2023-05-07T12:33:40;22.60;99.90
30764;DHT22;17497;51.476;7.770;2023-05-07T12:36:07;22.40;99.90
30764;DHT22;17497;51.476;7.770;2023-05-07T12:38:36;22.30;99.90
30764;DHT22;17497;51.476;7.770;2023-05-07T12:41:03;22.30;99.90
30764;DHT22;17497;51.476;7.770;2023-05-07T12:43:30;22.40;99.90
30764;DHT22;17497;51.476;7.770;2023-05-07T12:46:00;22.50;99.90
30764;DHT22;17497;51.476;7.770;2023-05-07T12:48:28;22.70;99.90
30764;DHT22;17497;51.476;7.770;2023-05-07T12:50:56;23.10;99.90
30764;DHT22;17497;51.476;7.770;2023-05-07T12:53:25;23.40;99.90
30764;DHT22;17497;51.476;7.770;2023-05-07T12:55:54;24.00;99.90
30764;DHT22;17497;51.476;7.770;2023-05-07T12:58:29;24.30;99.90
30764;DHT22;17497;51.476;7.770;2023-05-07T13:00:59;24.20;99.90
30764;DHT22;17497;51.476;7.770;2023-05-07T13:03:31;23.90;99.90
30764;DHT22;17497;51.476;7.770;2023-05-07T13:06:04;23.50;99.90
30764;DHT22;17497;51.476;7.770;2023-05-07T13:08:36;23.20;99.90
30764;DHT22;17497;51.476;7.770;2023-05-07T13:11:04;23.00;99.90
30764;DHT22;17497;51.476;7.770;2023-05-07T13:13:32;22.70;99.90
30764;DHT22;17497;51.476;7.770;2023-05-07T13:16:00;22.60;99.90
30764;DHT22;17497;51.476;7.770;2023-05-07T13:18:29;22.50;99.90
30764;DHT22;17497;51.476;7.770;2023-05-07T13:20:56;22.30;99.90
30764;DHT22;17497;51.476;7.770;2023-05-07T13:23:23;22.10;99.90
30764;DHT22;17497;51.476;7.770;2023-05-07T13:25:50;21.80;99.90
30764;DHT22;17497;51.476;7.770;2023-05-07T13:28:17;21.60;99.90
30764;DHT22;17497;51.476;7.770;2023-05-07T13:30:44;21.60;99.90
30764;DHT22;17497;51.476;7.770;2023-05-07T13:33:11;21.40;99.90
30764;DHT22;17497;51.476;7.770;2023-05-07T13:35:38;21.30;99.90
30764;DHT22;17497;51.476;7.770;2023-05-07T13:38:05;21.10;99.90
30764;DHT22;17497;51.476;7.770;2023-05-07T13:40:31;21.00;99.90
30764;DHT22;17497;51.476;7.770;2023-05-07T13:42:59;21.00;99.90
30764;DHT22;17497;51.476;7.770;2023-05-07T13:45:29;20.90;99.90
30764;DHT22;17497;51.476;7.770;2023-05-07T13:47:56;20.90;99.90
30764;DHT22;17497;51.476;7.770;2023-05-07T13:50:23;20.90;99.90
30764;DHT22;17497;51.476;7.770;2023-05-07T13:52:50;20.70;99.90
30764;DHT22;17497;51.476;7.770;2023-05-07T13:55:18;20.60;99.90
30764;DHT22;17497;51.476;7.770;2023-05-07T13:57:46;20.40;99.90
30764;DHT22;17497;51.476;7.770;2023-05-07T14:00:13;20.30;99.90
30764;DHT22;17497;51.476;7.770;2023-05-07T14:02:41;20.20;99.90
30764;DHT22;17497;51.476;7.770;2023-05-07T14:05:08;20.00;99.90
30764;DHT22;17497;51.476;7.770;2023-05-07T14:07:36;20.00;99.90
30764;DHT22;17497;51.476;7.770;2023-05-07T14:10:03;19.90;99.90
30764;DHT22;17497;51.476;7.770;2023-05-07T14:12:32;19.70;99.90
30764;DHT22;17497;51.476;7.770;2023-05-07T14:15:02;19.70;99.90
30764;DHT22;17497;51.476;7.770;2023-05-07T14:17:29;19.70;99.90
30764;DHT22;17497;51.476;7.770;2023-05-07T14:19:56;19.60;99.90
30764;DHT22;17497;51.476;7.770;2023-05-07T14:22:23;19.50;99.90
30764;DHT22;17497;51.476;7.770;2023-05-07T14:24:50;19.40;99.90
30764;DHT22;17497;51.476;7.770;2023-05-07T14:27:37;19.30;99.90
30764;DHT22;17497;51.476;7.770;2023-05-07T14:30:04;19.20;99.90
30764;DHT22;17497;51.476;7.770;2023-05-07T14:32:34;19.20;99.90
30764;DHT22;17497;51.476;7.770;2023-05-07T14:35:01;19.10;99.90
30764;DHT22;17497;51.476;7.770;2023-05-07T14:37:28;19.00;99.90
30764;DHT22;17497;51.476;7.770;2023-05-07T14:39:55;19.00;99.90
30764;DHT22;17497;51.476;7.770;2023-05-07T14:42:22;19.00;99.90
30764;DHT22;17497;51.476;7.770;2023-05-07T14:44:49;18.90;99.90
30764;DHT22;17497;51.476;7.770;2023-05-07T14:47:16;18.90;99.90
30764;DHT22;17497;51.476;7.770;2023-05-07T14:49:45;18.80;99.90
30764;DHT22;17497;51.476;7.770;2023-05-07T14:52:12;18.70;99.90
30764;DHT22;17497;51.476;7.770;2023-05-07T14:54:39;18.60;99.90
30764;DHT22;17497;51.476;7.770;2023-05-07T14:57:07;18.50;99.90
30764;DHT22;17497;51.476;7.770;2023-05-07T14:59:34;18.50;99.90
30764;DHT22;17497;51.476;7.770;2023-05-07T15:02:01;18.40;99.90
30764;DHT22;17497;51.476;7.770;2023-05-07T15:04:32;18.40;99.90
30764;DHT22;17497;51.476;7.770;2023-05-07T15:06:59;18.40;99.90
30764;DHT22;17497;51.476;7.770;2023-05-07T15:09:26;18.40;99.90
30764;DHT22;17497;51.476;7.770;2023-05-07T15:11:53;18.40;99.90
30764;DHT22;17497;51.476;7.770;2023-05-07T15:14:20;18.30;99.90
30764;DHT22;17497;51.476;7.770;2023-05-07T15:16:48;18.30;99.90
30764;DHT22;17497;51.476;7.770;2023-05-07T15:19:15;18.20;99.90
30764;DHT22;17497;51.476;7.770;2023-05-07T15:21:43;18.20;99.90
30764;DHT22;17497;51.476;7.770;2023-05-07T15:24:10;18.20;99.90
30764;DHT22;17497;51.476;7.770;2023-05-07T15:26:37;18.20;99.90
30764;DHT22;17497;51.476;7.770;2023-05-07T15:29:03;18.30;99.90
30764;DHT22;17497;51.476;7.770;2023-05-07T15:31:37;18.30;99.90
30764;DHT22;17497;51.476;7.770;2023-05-07T15:34:05;18.30;99.90
30764;DHT22;17497;51.476;7.770;2023-05-07T15:36:32;18.40;99.90
30764;DHT22;17497;51.476;7.770;2023-05-07T15:38:59;18.50;99.90
30764;DHT22;17497;51.476;7.770;2023-05-07T15:41:29;18.50;99.90
30764;DHT22;17497;51.476;7.770;2023-05-07T15:43:56;18.60;99.90
30764;DHT22;17497;51.476;7.770;2023-05-07T15:46:24;18.60;99.90
30764;DHT22;17497;51.476;7.770;2023-05-07T15:48:54;18.60;99.90
30764;DHT22;17497;51.476;7.770;2023-05-07T15:51:22;18.60;99.90
30764;DHT22;17497;51.476;7.770;2023-05-07T15:53:49;18.60;99.90
30764;DHT22;17497;51.476;7.770;2023-05-07T15:56:17;18.60;99.90
30764;DHT22;17497;51.476;7.770;2023-05-07T15:58:44;18.60;99.90
30764;DHT22;17497;51.476;7.770;2023-05-07T16:01:11;18.60;99.90
30764;DHT22;17497;51.476;7.770;2023-05-07T16:03:38;18.50;99.90
30764;DHT22;17497;51.476;7.770;2023-05-07T16:06:08;18.40;99.90
30764;DHT22;17497;51.476;7.770;2023-05-07T16:08:37;18.40;99.90
30764;DHT22;17497;51.476;7.770;2023-05-07T16:11:05;18.40;99.90
30764;DHT22;17497;51.476;7.770;2023-05-07T16:13:33;18.30;99.90
30764;DHT22;17497;51.476;7.770;2023-05-07T16:16:00;18.20;99.90
30764;DHT22;17497;51.476;7.770;2023-05-07T16:18:27;18.10;99.90
30764;DHT22;17497;51.476;7.770;2023-05-07T16:20:54;18.00;99.90
30764;DHT22;17497;51.476;7.770;2023-05-07T16:23:21;18.00;99.90
30764;DHT22;17497;51.476;7.770;2023-05-07T16:25:48;18.00;99.90
30764;DHT22;17497;51.476;7.770;2023-05-07T16:28:15;17.90;99.90
30764;DHT22;17497;51.476;7.770;2023-05-07T16:30:42;17.80;99.90
30764;DHT22;17497;51.476;7.770;2023-05-07T16:33:09;17.80;99.90
30764;DHT22;17497;51.476;7.770;2023-05-07T16:35:36;17.70;99.90
30764;DHT22;17497;51.476;7.770;2023-05-07T16:38:03;17.70;99.90
30764;DHT22;17497;51.476;7.770;2023-05-07T16:40:38;17.70;99.90
30764;DHT22;17497;51.476;7.770;2023-05-07T16:43:05;17.70;99.90
30764;DHT22;17497;51.476;7.770;2023-05-07T16:45:32;17.70;99.90
30764;DHT22;17497;51.476;7.770;2023-05-07T16:47:59;17.70;99.90
30764;DHT22;17497;51.476;7.770;2023-05-07T16:50:28;17.70;99.90
30764;DHT22;17497;51.476;7.770;2023-05-07T16:52:56;17.70;99.90
30764;DHT22;17497;51.476;7.770;2023-05-07T16:55:23;17.70;99.90
30764;DHT22;17497;51.476;7.770;2023-05-07T16:57:49;17.70;99.90
30764;DHT22;17497;51.476;7.770;2023-05-07T17:00:16;17.70;99.90
30764;DHT22;17497;51.476;7.770;2023-05-07T17:02:43;17.60;99.90
30764;DHT22;17497;51.476;7.770;2023-05-07T17:05:11;17.60;99.90
30764;DHT22;17497;51.476;7.770;2023-05-07T17:07:38;17.60;99.90
30764;DHT22;17497;51.476;7.770;2023-05-07T17:10:05;17.60;99.90
30764;DHT22;17497;51.476;7.770;2023-05-07T17:12:33;17.60;99.90
30764;DHT22;17497;51.476;7.770;2023-05-07T17:15:01;17.50;99.90
30764;DHT22;17497;51.476;7.770;2023-05-07T17:17:28;17.60;99.90
30764;DHT22;17497;51.476;7.770;2023-05-07T17:19:55;17.50;99.90
30764;DHT22;17497;51.476;7.770;2023-05-07T17:22:31;17.40;99.90
30764;DHT22;17497;51.476;7.770;2023-05-07T17:24:58;17.40;99.90
30764;DHT22;17497;51.476;7.770;2023-05-07T17:27:28;17.40;99.90
30764;DHT22;17497;51.476;7.770;2023-05-07T17:29:57;17.40;99.90
30764;DHT22;17497;51.476;7.770;2023-05-07T17:32:27;17.30;99.90
30764;DHT22;17497;51.476;7.770;2023-05-07T17:34:55;17.20;99.90
30764;DHT22;17497;51.476;7.770;2023-05-07T17:37:22;17.30;99.90
30764;DHT22;17497;51.476;7.770;2023-05-07T17:39:49;17.20;99.90
30764;DHT22;17497;51.476;7.770;2023-05-07T17:42:18;17.20;99.90
30764;DHT22;17497;51.476;7.770;2023-05-07T17:44:45;17.20;99.90
30764;DHT22;17497;51.476;7.770;2023-05-07T17:47:11;17.10;99.90
30764;DHT22;17497;51.476;7.770;2023-05-07T17:49:39;17.10;99.90
30764;DHT22;17497;51.476;7.770;2023-05-07T17:52:07;17.00;99.90
30764;DHT22;17497;51.476;7.770;2023-05-07T17:54:34;17.00;99.90
30764;DHT22;17497;51.476;7.770;2023-05-07T17:57:01;17.00;99.90
30764;DHT22;17497;51.476;7.770;2023-05-07T17:59:28;17.00;99.90
30764;DHT22;17497;51.476;7.770;2023-05-07T18:01:55;16.90;99.90
30764;DHT22;17497;51.476;7.770;2023-05-07T18:04:21;16.90;99.90
30764;DHT22;17497;51.476;7.770;2023-05-07T18:06:52;16.90;99.90
30764;DHT22;17497;51.476;7.770;2023-05-07T18:09:18;16.80;99.90
30764;DHT22;17497;51.476;7.770;2023-05-07T18:11:45;16.80;99.90
30764;DHT22;17497;51.476;7.770;2023-05-07T18:14:12;16.80;99.90
30764;DHT22;17497;51.476;7.770;2023-05-07T18:16:39;16.80;99.90
30764;DHT22;17497;51.476;7.770;2023-05-07T18:19:06;16.80;99.90
30764;DHT22;17497;51.476;7.770;2023-05-07T18:21:32;16.80;99.90
30764;DHT22;17497;51.476;7.770;2023-05-07T18:23:59;16.80;99.90
30764;DHT22;17497;51.476;7.770;2023-05-07T18:26:26;16.70;99.90
30764;DHT22;17497;51.476;7.770;2023-05-07T18:28:53;16.70;99.90